Time;durP1;ratioP1;P1;durP2;ratioP2;P2;SDS_P1;SDS_P2;PMS_P1;PMS_P2;Temp;Humidity;BMP_temperature;BMP_pressure;BME280_temperature;BME280_humidity;BME280_pressure;Samples;Min_cycle;Max_cycle;Signal;HPM_P1;HPM_P2
2022/05/15 00:01:46;;;;;;;16.55;6.70;;;;;;;;;;5013798;28;20455;-78
2022/05/15 00:04:11;;;;;;;19.73;6.70;;;;;;;;;;5020181;28;20038;-77
2022/05/15 00:06:36;;;;;;;30.57;7.57;;;;;;;;;;5020665;28;20499;-77
2022/05/15 00:09:02;;;;;;;17.45;5.65;;;;;;;;;;5003943;28;20286;-77
2022/05/15 00:11:27;;;;;;;21.75;6.75;;;;;;;;;;5022615;28;20238;-78
2022/05/15 00:13:52;;;;;;;22.45;6.32;;;;;;;;;;4999960;28;20129;-77
2022/05/15 00:16:17;;;;;;;24.83;6.93;;;;;;;;;;5019079;28;20455;-76
2022/05/15 00:18:43;;;;;;;20.65;6.72;;;;;;;;;;5022034;28;20281;-78
2022/05/15 00:21:08;;;;;;;21.30;6.72;;;;;;;;;;5022761;28;20116;-78
2022/05/15 00:23:34;;;;;;;22.70;6.90;;;;;;;;;;5023919;28;20462;-78
2022/05/15 00:25:59;;;;;;;19.27;6.45;;;;;;;;;;5020895;28;20395;-78
2022/05/15 00:28:24;;;;;;;22.00;6.00;;;;;;;;;;5005973;28;20026;-78
2022/05/15 00:30:49;;;;;;;18.92;5.53;;;;;;;;;;5025418;28;20313;-78
2022/05/15 00:33:15;;;;;;;19.90;5.18;;;;;;;;;;5020309;28;20124;-78
2022/05/15 00:35:41;;;;;;;27.02;5.35;;;;;;;;;;5023808;28;20072;-79
2022/05/15 00:38:07;;;;;;;26.50;6.45;;;;;;;;;;4998436;28;20486;-78
2022/05/15 00:40:33;;;;;;;24.30;5.32;;;;;;;;;;5027441;28;20022;-79
2022/05/15 00:42:58;;;;;;;26.25;6.15;;;;;;;;;;5006373;28;20044;-78
2022/05/15 00:45:24;;;;;;;29.60;6.88;;;;;;;;;;5025968;28;20061;-78
2022/05/15 00:47:49;;;;;;;29.98;5.32;;;;;;;;;;5003309;28;20021;-77
2022/05/15 00:50:16;;;;;;;27.08;5.72;;;;;;;;;;5024078;28;20032;-78
2022/05/15 00:52:44;;;;;;;19.85;5.40;;;;;;;;;;5018536;28;20368;-78
2022/05/15 00:55:14;;;;;;;27.85;5.93;;;;;;;;;;5023795;28;20613;-78
2022/05/15 00:58:06;;;;;;;24.30;5.97;;;;;;;;;;5005961;28;20032;-78
2022/05/15 01:00:32;;;;;;;22.27;5.47;;;;;;;;;;5017182;28;20844;-78
2022/05/15 01:03:05;;;;;;;28.48;5.45;;;;;;;;;;5028174;28;20064;-78
2022/05/15 01:05:32;;;;;;;25.47;4.87;;;;;;;;;;5024755;28;20036;-78
2022/05/15 01:07:57;;;;;;;25.70;5.72;;;;;;;;;;5020515;28;20041;-78
2022/05/15 01:10:22;;;;;;;27.15;5.43;;;;;;;;;;5020552;28;20593;-78
2022/05/15 01:12:48;;;;;;;30.83;5.80;;;;;;;;;;5003956;28;20057;-78
2022/05/15 01:15:19;;;;;;;26.80;5.07;;;;;;;;;;5024073;28;20278;-78
2022/05/15 01:17:45;;;;;;;24.02;5.93;;;;;;;;;;5021078;28;20013;-78
2022/05/15 01:20:14;;;;;;;31.70;6.00;;;;;;;;;;5023137;28;20022;-78
2022/05/15 01:22:40;;;;;;;22.35;5.05;;;;;;;;;;5002247;28;20025;-78
2022/05/15 01:25:17;;;;;;;25.05;5.82;;;;;;;;;;5026732;28;20013;-78
2022/05/15 01:27:55;;;;;;;27.40;6.55;;;;;;;;;;5025607;28;20111;-78
2022/05/15 01:30:20;;;;;;;21.92;4.85;;;;;;;;;;5018715;28;20100;-78
2022/05/15 01:32:46;;;;;;;21.42;5.20;;;;;;;;;;5019691;28;20029;-78
2022/05/15 01:35:11;;;;;;;26.33;5.35;;;;;;;;;;5006083;28;20032;-78
2022/05/15 01:37:36;;;;;;;31.33;6.40;;;;;;;;;;5021510;28;20033;-78
2022/05/15 01:40:03;;;;;;;25.35;6.57;;;;;;;;;;5023472;28;20625;-78
2022/05/15 01:42:29;;;;;;;30.00;7.13;;;;;;;;;;5022268;28;20101;-78
2022/05/15 01:44:54;;;;;;;30.33;5.75;;;;;;;;;;5022877;28;20025;-78
2022/05/15 01:47:19;;;;;;;24.77;5.55;;;;;;;;;;5016928;28;20030;-78
2022/05/15 01:49:44;;;;;;;31.10;5.90;;;;;;;;;;5017913;28;20566;-77
2022/05/15 01:52:09;;;;;;;30.63;9.27;;;;;;;;;;5024810;28;20045;-79
2022/05/15 01:54:34;;;;;;;24.53;5.23;;;;;;;;;;5018081;28;20291;-78
2022/05/15 01:57:00;;;;;;;29.85;5.47;;;;;;;;;;5021674;28;20269;-78
2022/05/15 01:59:25;;;;;;;35.03;5.20;;;;;;;;;;5023301;28;20052;-78
2022/05/15 02:01:50;;;;;;;22.27;5.57;;;;;;;;;;5026795;28;20048;-78
2022/05/15 02:04:16;;;;;;;28.88;5.90;;;;;;;;;;5020996;28;20695;-78
2022/05/15 02:06:41;;;;;;;24.85;4.78;;;;;;;;;;5023100;28;20141;-78
2022/05/15 02:09:06;;;;;;;25.37;6.33;;;;;;;;;;5022497;28;20525;-78
2022/05/15 02:11:34;;;;;;;22.05;4.60;;;;;;;;;;5005947;28;20310;-78
2022/05/15 02:13:59;;;;;;;26.27;7.68;;;;;;;;;;5019689;28;20108;-78
2022/05/15 02:16:24;;;;;;;26.38;5.45;;;;;;;;;;5003854;28;20551;-78
2022/05/15 02:18:49;;;;;;;19.15;5.22;;;;;;;;;;5025721;28;20029;-78
2022/05/15 02:21:14;;;;;;;26.20;5.85;;;;;;;;;;5022392;28;20032;-79
2022/05/15 02:23:39;;;;;;;27.23;5.10;;;;;;;;;;5017033;28;20026;-77
2022/05/15 02:26:05;;;;;;;23.93;5.90;;;;;;;;;;5019985;28;20112;-77
2022/05/15 02:28:30;;;;;;;31.23;6.72;;;;;;;;;;5017568;28;20033;-77
2022/05/15 02:30:55;;;;;;;29.65;5.78;;;;;;;;;;5000880;28;20029;-77
2022/05/15 02:33:20;;;;;;;28.05;5.18;;;;;;;;;;5020318;28;20454;-77
2022/05/15 02:35:46;;;;;;;27.23;5.05;;;;;;;;;;4997301;28;20482;-76
2022/05/15 02:38:11;;;;;;;25.80;5.40;;;;;;;;;;5021280;28;20021;-77
2022/05/15 02:40:36;;;;;;;26.00;5.67;;;;;;;;;;4998583;28;20778;-77
2022/05/15 02:43:01;;;;;;;19.02;6.03;;;;;;;;;;5002444;28;20279;-77
2022/05/15 02:45:27;;;;;;;19.67;5.68;;;;;;;;;;5019476;28;20116;-77
2022/05/15 02:47:52;;;;;;;34.75;6.13;;;;;;;;;;5021673;28;20539;-77
2022/05/15 02:53:02;;;;;;;27.70;5.85;;;;;;;;;;5023504;28;20463;-77
2022/05/15 02:55:27;;;;;;;25.77;5.80;;;;;;;;;;5004105;28;20033;-77
2022/05/15 02:57:52;;;;;;;17.45;5.38;;;;;;;;;;5021408;28;20371;-77
2022/05/15 03:00:19;;;;;;;21.15;5.32;;;;;;;;;;5005797;28;20033;-77
2022/05/15 03:02:44;;;;;;;31.80;6.38;;;;;;;;;;5020875;28;20033;-77
2022/05/15 03:05:10;;;;;;;28.97;5.87;;;;;;;;;;5019117;28;20013;-77
2022/05/15 03:07:36;;;;;;;30.45;6.30;;;;;;;;;;5004040;28;20263;-77
2022/05/15 03:10:01;;;;;;;23.48;6.07;;;;;;;;;;5003601;28;20033;-77
2022/05/15 03:12:26;;;;;;;29.63;5.65;;;;;;;;;;4998858;28;20351;-77
2022/05/15 03:14:52;;;;;;;26.40;7.97;;;;;;;;;;5020768;28;20024;-77
2022/05/15 03:17:18;;;;;;;19.88;5.53;;;;;;;;;;5021170;28;20588;-77
2022/05/15 03:19:43;;;;;;;26.75;5.78;;;;;;;;;;5020161;28;20032;-77
2022/05/15 03:22:09;;;;;;;29.42;6.07;;;;;;;;;;5002872;28;20029;-77
2022/05/15 03:24:34;;;;;;;28.55;5.57;;;;;;;;;;5017701;28;20025;-77
2022/05/15 03:27:00;;;;;;;33.10;6.70;;;;;;;;;;5001166;28;20976;-77
2022/05/15 03:29:25;;;;;;;16.77;5.30;;;;;;;;;;5017515;28;20025;-77
2022/05/15 03:31:51;;;;;;;19.98;5.88;;;;;;;;;;5021287;28;20022;-77
2022/05/15 03:34:16;;;;;;;19.83;4.60;;;;;;;;;;5020717;28;20021;-77
2022/05/15 03:36:43;;;;;;;19.95;5.65;;;;;;;;;;5004620;28;20674;-77
2022/05/15 03:39:09;;;;;;;26.48;5.05;;;;;;;;;;5026716;28;20037;-77
2022/05/15 03:41:35;;;;;;;27.13;5.80;;;;;;;;;;5005608;28;20032;-77
2022/05/15 03:44:00;;;;;;;27.00;5.85;;;;;;;;;;5021154;28;20033;-77
2022/05/15 03:46:26;;;;;;;26.75;6.00;;;;;;;;;;5021450;28;20040;-77
2022/05/15 03:48:52;;;;;;;26.08;6.95;;;;;;;;;;5016446;28;20432;-77
2022/05/15 03:51:17;;;;;;;21.20;6.57;;;;;;;;;;5024987;28;20021;-77
2022/05/15 03:53:42;;;;;;;26.90;6.15;;;;;;;;;;5019366;28;20390;-77
2022/05/15 03:56:07;;;;;;;19.80;5.75;;;;;;;;;;5026824;28;20417;-77
2022/05/15 03:58:34;;;;;;;20.90;5.43;;;;;;;;;;5019626;28;20030;-77
2022/05/15 04:00:59;;;;;;;23.90;6.30;;;;;;;;;;5017444;28;20029;-77
2022/05/15 04:03:24;;;;;;;23.05;6.00;;;;;;;;;;5005097;28;20357;-77
2022/05/15 04:05:50;;;;;;;43.72;7.22;;;;;;;;;;5021810;28;20095;-77
2022/05/15 04:08:15;;;;;;;32.70;6.93;;;;;;;;;;5001751;28;20368;-77
2022/05/15 04:10:40;;;;;;;27.85;6.90;;;;;;;;;;5004837;28;20289;-76
2022/05/15 04:13:05;;;;;;;26.17;5.97;;;;;;;;;;5006057;28;20025;-77
2022/05/15 04:15:31;;;;;;;19.73;5.25;;;;;;;;;;5009678;28;20104;-77
2022/05/15 04:17:56;;;;;;;25.38;6.28;;;;;;;;;;5007588;28;20372;-77
2022/05/15 04:20:22;;;;;;;24.67;7.03;;;;;;;;;;5026588;28;20101;-77
2022/05/15 04:22:48;;;;;;;19.38;5.53;;;;;;;;;;5020693;28;20041;-77
2022/05/15 04:25:13;;;;;;;27.65;6.72;;;;;;;;;;5022206;28;20656;-77
2022/05/15 04:27:41;;;;;;;21.08;6.25;;;;;;;;;;5003604;28;20117;-77
2022/05/15 04:30:08;;;;;;;21.50;6.10;;;;;;;;;;5016636;28;20030;-77
2022/05/15 04:32:33;;;;;;;19.65;6.28;;;;;;;;;;5021642;28;20044;-77
2022/05/15 04:34:58;;;;;;;25.57;6.30;;;;;;;;;;4996000;28;20022;-77
2022/05/15 04:37:23;;;;;;;28.65;7.28;;;;;;;;;;5024700;28;20273;-77
2022/05/15 04:39:48;;;;;;;19.52;6.28;;;;;;;;;;5018362;28;20022;-77
2022/05/15 04:42:14;;;;;;;32.72;6.82;;;;;;;;;;5020602;28;20025;-77
2022/05/15 04:44:39;;;;;;;25.70;7.13;;;;;;;;;;5020473;28;20033;-77
2022/05/15 04:47:04;;;;;;;34.35;7.75;;;;;;;;;;5015239;28;20033;-77
2022/05/15 04:49:29;;;;;;;29.33;7.90;;;;;;;;;;5007014;28;20347;-78
2022/05/15 04:51:54;;;;;;;25.37;6.67;;;;;;;;;;4996105;28;20021;-77
2022/05/15 04:54:20;;;;;;;26.08;7.60;;;;;;;;;;5016898;28;20340;-77
2022/05/15 04:56:45;;;;;;;26.13;6.95;;;;;;;;;;5019416;28;20116;-75
2022/05/15 04:59:10;;;;;;;31.97;8.67;;;;;;;;;;5020484;28;20455;-76
2022/05/15 05:01:35;;;;;;;25.02;6.88;;;;;;;;;;5002508;28;20283;-75
2022/05/15 05:04:01;;;;;;;23.52;7.00;;;;;;;;;;5004288;28;20132;-75
2022/05/15 05:06:27;;;;;;;34.83;7.85;;;;;;;;;;5022214;28;20033;-73
2022/05/15 05:08:52;;;;;;;28.77;7.72;;;;;;;;;;5023314;28;20044;-73
2022/05/15 05:11:17;;;;;;;27.67;7.60;;;;;;;;;;5029685;28;20348;-73
2022/05/15 05:13:42;;;;;;;25.17;7.38;;;;;;;;;;5026764;28;20310;-73
2022/05/15 05:16:08;;;;;;;23.50;6.60;;;;;;;;;;5021598;28;20021;-73
2022/05/15 05:18:33;;;;;;;19.50;6.75;;;;;;;;;;5019636;28;20029;-74
2022/05/15 05:20:58;;;;;;;27.80;7.33;;;;;;;;;;5021476;28;20431;-76
2022/05/15 05:23:23;;;;;;;30.63;7.20;;;;;;;;;;5022248;28;20722;-78
2022/05/15 05:25:48;;;;;;;30.65;7.97;;;;;;;;;;5022599;28;20326;-78
2022/05/15 05:28:14;;;;;;;32.63;7.57;;;;;;;;;;4997135;28;20034;-77
2022/05/15 05:30:39;;;;;;;25.15;6.93;;;;;;;;;;5021584;28;20636;-78
2022/05/15 05:33:04;;;;;;;37.17;8.43;;;;;;;;;;5022629;28;20028;-78
2022/05/15 05:35:30;;;;;;;27.13;7.50;;;;;;;;;;5005553;28;20270;-78
2022/05/15 05:37:55;;;;;;;24.38;6.95;;;;;;;;;;5022412;28;20021;-78
2022/05/15 05:40:20;;;;;;;27.80;8.60;;;;;;;;;;5007376;28;20029;-78
2022/05/15 05:42:46;;;;;;;24.15;8.30;;;;;;;;;;5023067;28;20352;-78
2022/05/15 05:45:11;;;;;;;28.80;7.72;;;;;;;;;;5021095;28;20038;-77
2022/05/15 05:47:37;;;;;;;30.15;8.70;;;;;;;;;;5018045;28;20039;-79
2022/05/15 05:50:03;;;;;;;20.38;7.22;;;;;;;;;;5006575;28;20481;-79
2022/05/15 05:52:28;;;;;;;26.73;8.48;;;;;;;;;;5006534;28;20376;-79
2022/05/15 05:54:53;;;;;;;31.15;7.07;;;;;;;;;;5020090;28;20486;-76
2022/05/15 05:57:19;;;;;;;34.97;8.30;;;;;;;;;;5018241;28;20037;-77
2022/05/15 05:59:44;;;;;;;33.13;9.10;;;;;;;;;;5004814;28;20275;-79
2022/05/15 06:02:09;;;;;;;26.17;9.53;;;;;;;;;;5028093;28;20040;-77
2022/05/15 06:04:44;;;;;;;36.80;10.15;;;;;;;;;;5018362;28;20034;-78
2022/05/15 06:07:14;;;;;;;42.58;10.15;;;;;;;;;;5026537;28;20026;-77
2022/05/15 06:09:40;;;;;;;23.58;8.55;;;;;;;;;;5016905;28;20037;-77
2022/05/15 06:12:05;;;;;;;30.95;8.27;;;;;;;;;;5021615;28;20030;-76
2022/05/15 06:14:31;;;;;;;33.72;8.57;;;;;;;;;;4998207;28;20054;-75
2022/05/15 06:16:56;;;;;;;24.83;8.30;;;;;;;;;;5015526;28;20006;-75
2022/05/15 06:19:21;;;;;;;23.38;9.35;;;;;;;;;;5022229;28;20582;-77
2022/05/15 06:21:47;;;;;;;28.63;8.70;;;;;;;;;;5022252;28;20025;-77
2022/05/15 06:24:12;;;;;;;36.47;9.30;;;;;;;;;;5019794;28;20310;-77
2022/05/15 06:26:37;;;;;;;34.05;9.18;;;;;;;;;;5028827;28;20478;-77
2022/05/15 06:29:02;;;;;;;28.85;8.55;;;;;;;;;;5034941;28;20041;-77
2022/05/15 06:31:27;;;;;;;36.90;9.60;;;;;;;;;;5023821;28;20053;-77
2022/05/15 06:33:52;;;;;;;29.30;9.13;;;;;;;;;;5000187;28;20053;-77
2022/05/15 06:36:18;;;;;;;28.35;9.45;;;;;;;;;;5022751;28;20024;-78
2022/05/15 06:38:43;;;;;;;23.98;8.70;;;;;;;;;;5006745;28;20360;-77
2022/05/15 06:41:08;;;;;;;27.47;9.53;;;;;;;;;;5060252;23;20044;-77
2022/05/15 06:43:33;;;;;;;31.88;9.30;;;;;;;;;;5027708;28;20793;-76
2022/05/15 06:45:58;;;;;;;29.23;10.20;;;;;;;;;;5047691;28;20486;-75
2022/05/15 06:48:24;;;;;;;28.73;9.52;;;;;;;;;;5040584;28;20490;-76
2022/05/15 06:50:49;;;;;;;32.28;9.73;;;;;;;;;;5025393;28;20120;-76
2022/05/15 06:53:15;;;;;;;26.23;9.25;;;;;;;;;;5047636;28;20055;-76
2022/05/15 06:58:24;;;;;;;20.42;8.32;;;;;;;;;;5043665;28;20057;-76
2022/05/15 07:00:49;;;;;;;26.67;9.13;;;;;;;;;;5043734;28;20510;-76
2022/05/15 07:03:15;;;;;;;29.25;9.90;;;;;;;;;;5033945;28;20047;-77
2022/05/15 07:05:40;;;;;;;26.48;9.63;;;;;;;;;;5039846;28;20430;-77
2022/05/15 07:08:08;;;;;;;33.22;9.48;;;;;;;;;;5040746;28;20368;-79
2022/05/15 07:10:33;;;;;;;25.92;9.55;;;;;;;;;;5039546;28;20044;-75
2022/05/15 07:12:58;;;;;;;26.43;10.50;;;;;;;;;;5042347;28;20760;-76
2022/05/15 07:15:24;;;;;;;27.30;10.43;;;;;;;;;;5040776;28;20285;-76
2022/05/15 07:17:49;;;;;;;27.00;9.97;;;;;;;;;;5041458;28;20096;-79
2022/05/15 07:20:14;;;;;;;30.77;9.83;;;;;;;;;;5044155;28;20035;-78
2022/05/15 07:22:39;;;;;;;28.08;9.68;;;;;;;;;;5028426;28;20075;-80
2022/05/15 07:25:04;;;;;;;33.58;10.30;;;;;;;;;;5025514;28;20029;-76
2022/05/15 07:27:29;;;;;;;29.10;10.77;;;;;;;;;;5043980;28;20103;-78
2022/05/15 07:29:55;;;;;;;34.13;12.07;;;;;;;;;;5045830;28;20017;-81
2022/05/15 07:32:20;;;;;;;25.83;10.15;;;;;;;;;;5046747;28;21331;-77
2022/05/15 07:34:46;;;;;;;24.77;9.77;;;;;;;;;;5041933;28;20517;-74
2022/05/15 07:37:12;;;;;;;22.08;9.48;;;;;;;;;;5045478;28;20922;-76
2022/05/15 07:39:37;;;;;;;27.15;9.25;;;;;;;;;;5026989;28;20040;-75
2022/05/15 07:42:02;;;;;;;25.30;10.30;;;;;;;;;;5047546;28;20291;-76
2022/05/15 07:44:27;;;;;;;26.10;11.13;;;;;;;;;;5041200;28;20036;-79
2022/05/15 07:46:53;;;;;;;30.38;10.80;;;;;;;;;;5046892;28;20032;-73
2022/05/15 07:49:18;;;;;;;25.23;9.38;;;;;;;;;;5044098;28;20131;-74
2022/05/15 07:51:46;;;;;;;27.07;9.93;;;;;;;;;;5043498;28;20032;-78
2022/05/15 07:54:16;;;;;;;23.02;8.73;;;;;;;;;;5042078;28;20031;-75
2022/05/15 07:56:41;;;;;;;22.27;9.23;;;;;;;;;;5043126;28;20360;-72
2022/05/15 07:59:06;;;;;;;23.83;8.75;;;;;;;;;;5038815;28;20466;-73
2022/05/15 08:01:32;;;;;;;23.23;8.70;;;;;;;;;;5020574;28;20021;-74
2022/05/15 08:03:57;;;;;;;34.00;10.37;;;;;;;;;;5041361;28;20468;-75
2022/05/15 08:09:07;;;;;;;18.27;8.63;;;;;;;;;;5043246;28;20281;-72
2022/05/15 08:11:32;;;;;;;19.83;9.35;;;;;;;;;;5034723;28;20422;-74
2022/05/15 08:13:58;;;;;;;21.47;8.87;;;;;;;;;;5042157;28;20116;-73
2022/05/15 08:16:23;;;;;;;26.85;9.60;;;;;;;;;;5039997;28;20072;-74
2022/05/15 08:24:16;;;;;;;27.10;8.65;;;;;;;;;;5036707;28;20727;-73
2022/05/15 08:26:44;;;;;;;19.70;8.87;;;;;;;;;;5036344;28;20036;-73
2022/05/15 08:29:09;;;;;;;28.15;8.85;;;;;;;;;;5039245;28;20052;-73
2022/05/15 08:31:34;;;;;;;24.48;8.80;;;;;;;;;;5042148;28;20116;-74
2022/05/15 08:33:59;;;;;;;20.38;8.65;;;;;;;;;;5050755;28;20032;-72
2022/05/15 08:36:24;;;;;;;25.95;8.45;;;;;;;;;;5052614;28;20023;-72
2022/05/15 08:38:50;;;;;;;24.07;9.33;;;;;;;;;;5052841;28;20530;-71
2022/05/15 08:41:33;;;;;;;23.58;8.88;;;;;;;;;;5053260;28;20048;-73
2022/05/15 08:44:04;;;;;;;24.23;9.30;;;;;;;;;;5066795;28;20131;-73
2022/05/15 08:46:29;;;;;;;28.55;8.57;;;;;;;;;;5056238;28;20031;-72
2022/05/15 08:48:57;;;;;;;13.63;7.90;;;;;;;;;;5058115;28;20029;-71
2022/05/15 08:51:22;;;;;;;18.88;8.50;;;;;;;;;;5057182;28;20052;-71
2022/05/15 08:53:48;;;;;;;25.80;8.67;;;;;;;;;;5061808;28;20120;-74
2022/05/15 08:56:14;;;;;;;27.27;9.23;;;;;;;;;;5060348;28;20029;-74
2022/05/15 08:58:43;;;;;;;28.52;9.07;;;;;;;;;;5058064;28;20023;-72
2022/05/15 09:01:10;;;;;;;14.63;7.15;;;;;;;;;;5063689;28;20021;-71
2022/05/15 09:03:37;;;;;;;20.67;8.35;;;;;;;;;;5060417;28;20020;-72
2022/05/15 09:06:08;;;;;;;19.45;8.13;;;;;;;;;;5054978;28;20114;-70
2022/05/15 09:08:58;;;;;;;22.00;8.75;;;;;;;;;;5051139;28;20028;-73
2022/05/15 09:11:36;;;;;;;28.95;7.90;;;;;;;;;;5044969;28;20056;-71
2022/05/15 09:14:20;;;;;;;31.65;8.00;;;;;;;;;;5058941;28;20135;-73
2022/05/15 09:16:45;;;;;;;;;;;;;;;;;;5055840;28;20025;-72
2022/05/15 09:19:10;;;;;;;17.15;6.20;;;;;;;;;;5058103;28;19959;-71
2022/05/15 09:21:35;;;;;;;16.00;6.40;;;;;;;;;;5062657;28;20032;-72
2022/05/15 09:24:09;;;;;;;17.67;6.80;;;;;;;;;;5063499;28;20052;-71
2022/05/15 09:26:46;;;;;;;15.93;5.75;;;;;;;;;;5063341;28;20292;-71
2022/05/15 09:29:16;;;;;;;21.65;5.82;;;;;;;;;;5055900;28;20032;-71
2022/05/15 09:31:42;;;;;;;17.83;5.45;;;;;;;;;;5056535;28;20029;-73
2022/05/15 09:34:19;;;;;;;16.55;6.07;;;;;;;;;;5057606;28;20025;-74
2022/05/15 09:36:45;;;;;;;16.23;5.68;;;;;;;;;;5063037;28;20021;-71
2022/05/15 09:39:26;;;;;;;18.37;5.33;;;;;;;;;;5059062;28;20047;-71
2022/05/15 09:44:41;;;;;;;18.85;6.70;;;;;;;;;;5058724;28;20479;-72
2022/05/15 09:47:09;;;;;;;17.48;5.35;;;;;;;;;;5057550;28;20460;-71
2022/05/15 09:49:34;;;;;;;17.50;4.68;;;;;;;;;;5053300;28;20040;-72
2022/05/15 09:52:01;;;;;;;19.60;6.13;;;;;;;;;;5060967;28;20187;-71
2022/05/15 09:54:47;;;;;;;12.93;3.90;;;;;;;;;;5056020;28;20490;-71
2022/05/15 09:57:24;;;;;;;9.07;3.10;;;;;;;;;;5058514;28;20037;-72
2022/05/15 09:59:55;;;;;;;9.77;3.92;;;;;;;;;;5058521;28;20028;-73
2022/05/15 10:02:22;;;;;;;13.02;4.90;;;;;;;;;;5051670;28;20363;-72
2022/05/15 10:04:49;;;;;;;12.27;4.20;;;;;;;;;;5061440;28;20512;-75
2022/05/15 10:07:28;;;;;;;13.02;3.83;;;;;;;;;;5056582;28;20028;-72
2022/05/15 10:09:53;;;;;;;8.85;3.53;;;;;;;;;;5064472;28;20027;-72
2022/05/15 10:12:21;;;;;;;14.48;4.70;;;;;;;;;;5064553;28;20032;-71
2022/05/15 10:14:48;;;;;;;12.82;3.83;;;;;;;;;;5060922;28;20024;-72
2022/05/15 10:17:14;;;;;;;13.25;4.18;;;;;;;;;;5054192;28;20024;-71
2022/05/15 10:19:45;;;;;;;14.57;4.95;;;;;;;;;;5057914;28;20425;-72
2022/05/15 10:22:13;;;;;;;14.85;4.05;;;;;;;;;;5064355;28;20028;-71
2022/05/15 10:24:40;;;;;;;10.18;4.05;;;;;;;;;;5063103;28;20547;-71
2022/05/15 10:27:18;;;;;;;16.40;4.15;;;;;;;;;;5062874;28;20116;-72
2022/05/15 10:29:47;;;;;;;11.23;3.83;;;;;;;;;;5060038;28;20499;-69
2022/05/15 10:32:16;;;;;;;19.38;3.88;;;;;;;;;;5058695;28;20513;-68
2022/05/15 10:34:41;;;;;;;9.13;3.22;;;;;;;;;;5058478;28;20516;-71
2022/05/15 10:37:25;;;;;;;13.65;4.47;;;;;;;;;;5054990;28;20040;-70
2022/05/15 10:39:56;;;;;;;13.43;4.32;;;;;;;;;;5061970;28;20085;-70
2022/05/15 10:42:37;;;;;;;16.35;4.88;;;;;;;;;;5057569;28;20454;-68
2022/05/15 10:45:21;;;;;;;16.17;4.15;;;;;;;;;;5060399;28;20495;-71
2022/05/15 10:47:59;;;;;;;19.98;4.72;;;;;;;;;;5058115;28;20431;-72
2022/05/15 10:50:30;;;;;;;10.60;3.75;;;;;;;;;;5056215;28;20020;-71
2022/05/15 10:52:55;;;;;;;10.85;3.33;;;;;;;;;;5063581;28;20124;-71
2022/05/15 10:58:12;;;;;;;11.65;3.80;;;;;;;;;;5056376;28;20438;-70
2022/05/15 11:00:46;;;;;;;15.83;3.83;;;;;;;;;;5060354;28;20021;-70
2022/05/15 11:03:12;;;;;;;14.68;4.85;;;;;;;;;;5057815;28;20390;-69
2022/05/15 11:05:42;;;;;;;12.93;3.73;;;;;;;;;;5060017;28;20025;-73
2022/05/15 11:08:17;;;;;;;17.45;3.75;;;;;;;;;;5039804;28;20063;-71
2022/05/15 11:10:48;;;;;;;10.05;2.75;;;;;;;;;;5056202;28;20028;-70
2022/05/15 11:13:17;;;;;;;14.90;4.13;;;;;;;;;;5062527;28;20021;-71
2022/05/15 11:15:43;;;;;;;14.13;3.85;;;;;;;;;;5057365;28;20021;-71
2022/05/15 11:18:14;;;;;;;10.27;2.83;;;;;;;;;;5056016;28;20024;-69
2022/05/15 11:20:41;;;;;;;12.73;3.75;;;;;;;;;;5056907;28;20032;-71
2022/05/15 11:23:11;;;;;;;8.82;3.35;;;;;;;;;;5058929;28;20033;-69
2022/05/15 11:25:41;;;;;;;10.27;3.40;;;;;;;;;;5061764;28;20020;-70
2022/05/15 11:28:13;;;;;;;10.70;3.08;;;;;;;;;;5058910;28;20037;-69
2022/05/15 11:30:41;;;;;;;9.95;3.10;;;;;;;;;;5056999;28;20110;-69
2022/05/15 11:33:10;;;;;;;9.43;3.10;;;;;;;;;;5057792;28;20016;-69
2022/05/15 11:35:40;;;;;;;12.23;2.90;;;;;;;;;;5040187;28;20024;-68
2022/05/15 11:38:08;;;;;;;7.65;2.50;;;;;;;;;;5058098;28;20198;-68
2022/05/15 11:40:38;;;;;;;5.97;2.63;;;;;;;;;;5051422;28;20024;-68
2022/05/15 11:43:22;;;;;;;15.55;3.40;;;;;;;;;;5060094;28;20116;-67
2022/05/15 11:45:49;;;;;;;13.50;3.72;;;;;;;;;;5059883;28;20593;-69
2022/05/15 11:48:18;;;;;;;12.63;2.92;;;;;;;;;;5056303;28;20027;-68
2022/05/15 11:51:02;;;;;;;12.38;3.55;;;;;;;;;;5041919;28;20481;-70
2022/05/15 11:53:29;;;;;;;10.95;3.00;;;;;;;;;;5056443;28;20469;-69
2022/05/15 11:55:54;;;;;;;10.90;2.53;;;;;;;;;;5055169;28;20016;-69
2022/05/15 11:58:20;;;;;;;8.38;2.50;;;;;;;;;;5057069;28;20027;-70
2022/05/15 12:00:58;;;;;;;9.07;2.60;;;;;;;;;;5057329;28;20032;-69
2022/05/15 12:03:41;;;;;;;7.93;3.13;;;;;;;;;;5055059;28;20040;-71
2022/05/15 12:06:09;;;;;;;9.23;2.70;;;;;;;;;;5053399;28;20028;-69
2022/05/15 12:08:36;;;;;;;6.82;2.13;;;;;;;;;;5052694;28;20025;-70
2022/05/15 12:11:13;;;;;;;6.57;2.25;;;;;;;;;;5056898;28;20040;-68
2022/05/15 12:13:40;;;;;;;7.30;2.45;;;;;;;;;;5059013;28;20112;-69
2022/05/15 12:16:16;;;;;;;7.40;2.25;;;;;;;;;;5054809;28;20052;-69
2022/05/15 12:18:41;;;;;;;6.63;2.30;;;;;;;;;;5059743;28;20441;-69
2022/05/15 12:21:07;;;;;;;6.63;2.27;;;;;;;;;;5058321;28;20486;-70
2022/05/15 12:23:35;;;;;;;7.32;2.20;;;;;;;;;;5062206;28;20086;-70
2022/05/15 12:26:16;;;;;;;8.88;2.33;;;;;;;;;;5060971;28;20071;-69
2022/05/15 12:28:50;;;;;;;7.93;1.98;;;;;;;;;;5060213;28;20467;-70
2022/05/15 12:31:17;;;;;;;6.25;2.33;;;;;;;;;;5058396;28;20032;-70
2022/05/15 12:33:43;;;;;;;5.93;2.13;;;;;;;;;;5063128;28;20024;-70
2022/05/15 12:36:29;;;;;;;8.98;2.60;;;;;;;;;;5066847;28;20029;-69
2022/05/15 12:38:54;;;;;;;8.75;2.47;;;;;;;;;;5061759;28;20025;-68
2022/05/15 12:41:21;;;;;;;5.65;2.53;;;;;;;;;;5058378;28;20047;-72
2022/05/15 12:43:49;;;;;;;9.68;2.50;;;;;;;;;;5066436;28;20470;-68
2022/05/15 12:46:23;;;;;;;9.77;2.53;;;;;;;;;;5060649;28;20504;-68
2022/05/15 12:48:48;;;;;;;5.43;2.55;;;;;;;;;;5048391;28;20024;-68
2022/05/15 12:51:16;;;;;;;6.00;2.27;;;;;;;;;;5059297;28;20039;-68
2022/05/15 12:53:46;;;;;;;10.32;2.20;;;;;;;;;;5064017;28;20077;-68
2022/05/15 12:56:11;;;;;;;9.50;3.47;;;;;;;;;;5062017;28;20052;-68
2022/05/15 12:58:36;;;;;;;18.37;3.47;;;;;;;;;;5061242;28;20124;-69
2022/05/15 13:01:03;;;;;;;6.50;2.40;;;;;;;;;;5062749;28;20029;-68
2022/05/15 13:03:29;;;;;;;10.23;3.00;;;;;;;;;;5062521;28;20139;-68
2022/05/15 13:05:56;;;;;;;7.78;2.15;;;;;;;;;;5063872;28;20103;-67
2022/05/15 13:08:22;;;;;;;9.50;3.20;;;;;;;;;;5060980;28;20033;-68
2022/05/15 13:11:01;;;;;;;8.57;2.53;;;;;;;;;;5064031;28;20028;-70
2022/05/15 13:13:26;;;;;;;7.25;2.30;;;;;;;;;;5042161;28;20024;-70
2022/05/15 13:15:52;;;;;;;5.65;2.50;;;;;;;;;;5061830;28;20036;-68
2022/05/15 13:18:18;;;;;;;7.57;2.33;;;;;;;;;;5063867;28;20021;-68
2022/05/15 13:20:53;;;;;;;6.33;2.13;;;;;;;;;;5063125;28;20066;-68
2022/05/15 13:23:19;;;;;;;7.00;2.72;;;;;;;;;;5059240;28;20257;-68
2022/05/15 13:25:48;;;;;;;10.48;2.63;;;;;;;;;;5061389;28;20017;-69
2022/05/15 13:28:13;;;;;;;5.65;2.20;;;;;;;;;;5059329;28;20024;-69
2022/05/15 13:30:39;;;;;;;10.85;2.60;;;;;;;;;;5059108;28;20495;-68
2022/05/15 13:33:06;;;;;;;17.38;3.60;;;;;;;;;;5063367;28;20028;-68
2022/05/15 13:35:35;;;;;;;7.50;2.75;;;;;;;;;;5063648;28;20475;-68
2022/05/15 13:38:12;;;;;;;7.97;2.88;;;;;;;;;;5069366;28;20044;-68
2022/05/15 13:43:23;;;;;;;7.95;2.63;;;;;;;;;;5055057;28;20115;-69
2022/05/15 13:45:52;;;;;;;5.97;2.58;;;;;;;;;;5057072;28;20062;-70
2022/05/15 13:48:18;;;;;;;14.82;7.30;;;;;;;;;;5063233;28;20020;-70
2022/05/15 13:50:46;;;;;;;12.13;2.30;;;;;;;;;;5060828;28;20608;-69
2022/05/15 13:53:26;;;;;;;7.75;2.80;;;;;;;;;;5064365;28;20025;-68
2022/05/15 13:56:00;;;;;;;9.77;2.47;;;;;;;;;;5063266;28;20965;-70
2022/05/15 13:58:44;;;;;;;10.02;3.15;;;;;;;;;;5058627;28;20118;-70
2022/05/15 14:01:15;;;;;;;10.07;2.60;;;;;;;;;;5059984;28;20119;-69
2022/05/15 14:03:43;;;;;;;5.45;2.13;;;;;;;;;;5059043;28;20394;-69
2022/05/15 14:06:29;;;;;;;11.18;2.85;;;;;;;;;;5070224;28;20029;-69
2022/05/15 14:09:00;;;;;;;6.90;2.65;;;;;;;;;;5057381;28;20124;-69
2022/05/15 14:11:27;;;;;;;8.73;2.50;;;;;;;;;;5061201;28;20075;-70
2022/05/15 14:13:53;;;;;;;6.78;2.60;;;;;;;;;;5057792;28;20044;-71
2022/05/15 14:16:21;;;;;;;7.03;1.98;;;;;;;;;;5055848;28;20027;-69
2022/05/15 14:18:46;;;;;;;19.00;2.58;;;;;;;;;;5058241;28;20023;-70
2022/05/15 14:21:14;;;;;;;8.37;2.50;;;;;;;;;;5059034;28;20024;-70
2022/05/15 14:23:39;;;;;;;10.63;2.90;;;;;;;;;;5052961;28;20075;-68
2022/05/15 14:26:05;;;;;;;9.03;2.40;;;;;;;;;;5060600;28;20047;-69
2022/05/15 14:28:30;;;;;;;8.82;3.25;;;;;;;;;;5056434;28;20115;-70
2022/05/15 14:30:56;;;;;;;6.78;2.55;;;;;;;;;;5060672;28;20382;-70
2022/05/15 14:33:23;;;;;;;7.00;2.30;;;;;;;;;;5062559;28;20025;-69
2022/05/15 14:36:06;;;;;;;9.18;2.50;;;;;;;;;;5056204;28;20261;-69
2022/05/15 14:38:31;;;;;;;5.50;2.15;;;;;;;;;;5052973;28;20539;-69
2022/05/15 14:40:56;;;;;;;5.53;2.22;;;;;;;;;;5061532;28;20032;-69
2022/05/15 14:43:22;;;;;;;10.10;2.55;;;;;;;;;;5057852;28;20024;-70
2022/05/15 14:45:57;;;;;;;5.82;2.78;;;;;;;;;;5058373;28;20483;-70
2022/05/15 14:48:24;;;;;;;7.82;3.10;;;;;;;;;;5059069;28;20016;-69
2022/05/15 14:50:50;;;;;;;14.40;2.85;;;;;;;;;;5054181;28;20016;-69
2022/05/15 14:53:18;;;;;;;9.18;2.90;;;;;;;;;;5057206;28;20033;-68
2022/05/15 14:58:27;;;;;;;23.73;3.17;;;;;;;;;;5055488;28;20516;-70